Insider Trading activities of Honeywell International Inc insiders. , Part 3

Monthly summaries of insider trading activities (stock purchases, sales, and option exercises) reported by insiders of Honeywell International Inc since 2005 are illustrated in Table 1 and Table 2. Table 1 shows the monthly insider trading data of Honeywell International Inc since year 2005. (See page 1 of this report.) Table 2 shows the detailed insider transactions of Honeywell International Inc since 2005. The reporting company's ticker symbol is HON. The reporting company's CIK number is 773840.
The total value of stock buying since 2005 is $1,170,544.
The total value of stock sales since 2005 is $824,327,155.
The total value of stock option exercises since 2005 is $711,171,819.


 1   2   3 

Table 2. Detailed insider stock purchases, sales, and option exercises of Honeywell International Inc insiders (HON) , Part 3
  Trade Date   Insider Name Trade Type     Shares       Price ($)   Value ($)
2013-02-26 Matteo Adam (Vice President & Controller) Option Ex 2,149 69.20 148,710
2013-02-26 Mikkilineni Krishna (SrVP, Engineering & Operations) Option Ex 13,433 69.20 929,563
2013-02-26 Mahoney Timothy O. (President and CEO, Aerospace) Option Ex 7,593 69.20 525,435
2013-02-21 Pardo Jaime Chico /fa (Director) Option Ex 2,000 22.90 45,800
2013-02-19 Mahoney Timothy O. (President and CEO, Aerospace) Sale 277 70.23 19,453
2013-02-05 Fradin Roger (President & CEO, ACS) Sale 50,000 70.00 3,500,000
2013-02-04 Ismail Alexandre (President and CEO, TS) Sale 11,024 68.52 755,364
2013-01-31 Fradin Roger (President & CEO, ACS) Sale 50,000 68.44 3,422,000
2013-01-15 Mahoney Timothy O. (President and CEO, Aerospace) Option Ex 1,994 66.58 132,760
2012-12-27 Mahoney Timothy O. (President and CEO, Aerospace) Sale 4,465 63.23 282,321
2012-12-27 Mahoney Timothy O. (President and CEO, Aerospace) Option Ex 6,000 35.65 213,900
2012-12-26 Kramvis Andreas (Pres/CEO Honeywell PMT) Sale 5,758 64.25 369,951
2012-12-26 Kramvis Andreas (Pres/CEO Honeywell PMT) Option Ex 7,500 36.51 273,825
2012-12-24 Kramvis Andreas (Pres/CEO Honeywell PMT) Sale 23,969 63.66 1,525,986
2012-12-20 Ismail Alexandre (President and CEO, TS) Sale 9,080 64.27 583,571
2012-12-20 Ismail Alexandre (President and CEO, TS) Option Ex 12,000 35.65 427,800
2012-12-19 Anderson David J (Sr. VP and CFO) Sale 83,723 63.95 5,354,085
2012-12-19 Anderson David J (Sr. VP and CFO) Option Ex 112,000 35.65 3,992,800
2012-11-20 Adams Katherine L. (Sr. VP & General Counsel) Sale 830 60.52 50,235
2012-11-07 Kramvis Andreas (Pres/CEO Honeywell PMT) Sale 10,000 62.15 621,500
2012-11-06 Kramvis Andreas (Pres/CEO Honeywell PMT) Sale 5,776 63.75 368,220
2012-11-06 Kramvis Andreas (Pres/CEO Honeywell PMT) Option Ex 7,500 36.51 273,825
2012-11-02 James Mark R. (Sr. VP, HR & Communications) Sale 5,040 62.59 315,428
2012-11-02 James Mark R. (Sr. VP, HR & Communications) Option Ex 6,600 36.51 240,966
2012-11-02 Fradin Roger (President and CEO, ACS) Sale 115,117 62.78 7,227,045
2012-11-02 Fradin Roger (President and CEO, ACS) Option Ex 150,000 35.65 5,347,500
2012-11-01 Kramvis Andreas (President & CEO, PMT) Sale 11,626 62.75 729,531
2012-11-01 Kramvis Andreas (President & CEO, PMT) Option Ex 15,000 36.51 547,650
2012-10-26 Cote David M (Chairman and CEO) Sale 390,511 61.59 24,051,572
2012-10-26 Cote David M (Chairman and CEO) Option Ex 600,000 28.13 16,878,000
2012-10-24 Anderson David J (Sr. VP and CFO) Sale 106,224 61.45 6,527,464
2012-10-24 Anderson David J (Sr. VP and CFO) Option Ex 150,000 30.64 4,595,550
2012-10-12 Adams Katherine L. (Sr. VP & General Counsel) Sale 625 60.78 37,987
2012-10-09 Adams Katherine L. (Sr. VP & General Counsel) Option Ex 13,890 61.30 851,457
2012-09-13 Adams Katherine L. (SVP and General Counsel) Sale 19,142 60.40 1,156,081
2012-09-13 Adams Katherine L. (SVP and General Counsel) Option Ex 25,000 35.65 891,250
2012-08-17 Mikkilineni Krishna (SVP, Engineering & Operations) Sale 12,412 59.50 738,514
2012-08-17 Mikkilineni Krishna (SVP, Engineering & Operations) Option Ex 20,000 23.93 478,600
2012-08-17 Kramvis Andreas (President & CEO, PMT) Sale 11,795 59.16 697,792
2012-08-17 Kramvis Andreas (President & CEO, PMT) Option Ex 15,000 35.65 534,750
2012-07-30 James Mark R. (SVP, HR & Communications) Sale 6,165 58.51 360,714
2012-07-29 Fradin Roger (President & CEO, ACS) Option Ex 17,000 58.71 998,070
2012-07-27 Winters Kathleen A (Vice President and Controller) Sale 4,631 59.20 274,155
2012-07-27 Winters Kathleen A (Vice President and Controller) Option Ex 9,310 41.30 384,503
2012-07-27 Fradin Roger (President & CEO, ACS) Sale 51,100 59.06 3,017,966
2012-07-27 Fradin Roger (President & CEO, ACS) Option Ex 75,000 23.93 1,794,750
2012-07-27 Anderson David J (Sr. VP and CFO) Sale 35,169 58.72 2,065,123
2012-07-27 Anderson David J (Sr. VP and CFO) Option Ex 50,000 28.13 1,406,500
2012-05-10 Bethune Gordon M (Director) Option Ex 2,000 32.43 64,860
2012-04-29 Ismail Alexandre (President and CEO, TS) Option Ex 16,246 60.99 990,843
2012-04-27 Anderson David J (Sr. VP and CFO) Sale 34,600 61.21 2,117,762
2012-04-27 Anderson David J (Sr. VP and CFO) Option Ex 50,000 28.13 1,406,500
2012-03-01 Winters Kathleen A (Vice President and Controller) Sale 693 59.73 41,392
2012-03-01 Kramvis Andreas (President & CEO, PMT) Sale 7,850 59.95 470,607
2012-03-01 Kramvis Andreas (President & CEO, PMT) Option Ex 10,000 35.65 356,500
2012-03-01 James Mark R. (Sr. VP, HR & Communications) Sale 3,860 59.69 230,403
2012-02-29 Mahoney Timothy O. (President and CEO, Aerospace) Sale 1,598 60.14 96,103
2012-02-29 Pardo Jaime Chico /fa (Director) Option Ex 2,000 32.43 64,860
2012-02-28 Adams Katherine L. (Sr. VP & General Counsel) Sale 939 59.76 56,114
2012-02-28 Kramvis Andreas (President and CEO, PMT) Sale 2,600 59.76 155,376
2012-02-24 Mikkilineni Krishna (SrVp, Engineering & Operations) Option Ex 11,326 59.27 671,292
2012-02-24 Mahoney Timothy O. (President and CEO, Aerospace) Option Ex 16,180 59.27 958,988
2012-02-24 Winters Kathleen A (Vice President and Controller) Option Ex 4,854 59.27 287,696
2012-02-24 Ismail Alexandre (President and CEO, TS) Option Ex 12,135 59.27 719,241
2012-02-24 Adams Katherine L. (Sr. VP & General Counsel) Option Ex 21,602 59.27 1,280,350
2012-02-24 James Mark R. (Sr. VP, HR & Communications) Option Ex 27,003 59.27 1,600,467
2012-02-24 Fradin Roger (President & CEO, ACS) Option Ex 43,205 59.27 2,560,760
2012-02-24 Cote David M (Chairman & CEO) Option Ex 32,404 59.27 1,920,585
2012-02-03 Adams Katherine L. (SVP and General Counsel) Sale 5,580 59.91 334,269
2012-02-03 Adams Katherine L. (SVP and General Counsel) Option Ex 8,500 23.14 196,690
2012-02-03 Anderson David J (Sr. VP and CFO) Sale 27,950 59.97 1,676,161
2012-02-03 Anderson David J (Sr. VP and CFO) Option Ex 40,000 28.13 1,125,200
2012-02-01 Anderson David J (Sr. VP and CFO) Sale 7,044 59.06 416,053
2012-02-01 Anderson David J (Sr. VP and CFO) Option Ex 10,000 28.13 281,300
2011-12-23 Adams Katherine L. (SVP and General Counsel) Sale 4,697 54.77 257,231
2011-12-23 Adams Katherine L. (SVP and General Counsel) Option Ex 7,000 23.14 161,980
2011-12-21 Winters Kathleen A (Vice President and Controller) Sale 3,712 54.21 201,227
2011-12-21 Winters Kathleen A (Vice President and Controller) Option Ex 5,000 29.49 147,450
2011-12-20 Ismail Alexandre (President and CEO, TS) Sale 16,786 53.34 895,432
2011-12-20 Kramvis Andreas (President and CEO, PMT) Sale 800 54.20 43,360
2011-11-15 Kramvis Andreas (President and CEO, SM) Sale 900 55.15 49,635
2011-11-15 Burke Kevin (Director) Buy 2,000 54.60 109,200
2011-11-14 James Mark R. (Sr. VP, HR & Communications) Sale 2,998 54.58 163,621
2011-11-11 Fradin Roger (President & CEO, ACS) Sale 58,500 55.01 3,218,085
2011-11-11 Fradin Roger (President & CEO, ACS) Option Ex 75,000 32.43 2,432,250
2011-11-11 Cote David M (Chairman & CEO) Sale 427,355 54.83 23,431,874
2011-11-11 Cote David M (Chairman & CEO) Option Ex 550,000 33.38 18,359,000
2011-11-10 Cote David M (Chairman & CEO) Sale 433,400 53.59 23,225,906
2011-11-10 Cote David M (Chairman & CEO) Option Ex 551,100 33.38 18,395,718
2011-10-27 Mahoney Timothy O. (President and CEO, Aerospace) Sale 597 54.25 32,387
2011-10-27 Kramvis Andreas (President and CEO, SM) Sale 1,200 54.16 64,991
2011-10-26 Adams Katherine L. (Sr. VP & General Counsel) Sale 905 51.39 46,507
2011-08-26 Pardo Jaime Chico /fa (Director) Buy 5,000 45.84 229,175
2011-08-05 Gregg Judd A. (Director) Buy 2,000 49.57 99,140
2011-08-04 Ismail Alexandre (President and CEO, TS) Option Ex 5,610 49.78 279,265
2011-07-25 Mikkilineni Krishna (SrVp, Engineering & Operations) Option Ex 5,415 56.24 304,539
2011-07-25 Kramvis Andreas (President and CEO, SM) Option Ex 18,057 56.24 1,015,525
2011-07-25 James Mark R. (Sr. VP, HR & Communications) Option Ex 14,445 56.24 812,386
2011-06-28 Mikkilineni Krishna (SrVp, Engineering & Operations) Option Ex 5,610 57.56 322,911
2011-06-28 Mahoney Timothy O. (President and CEO, Aerospace) Option Ex 5,610 57.56 322,911
2011-06-28 Adams Katherine L. (Sr. VP & General Counsel) Option Ex 5,610 57.56 322,911
2011-06-28 James Mark R. (Sr. VP, HR & Communications) Option Ex 5,610 57.56 322,911
2011-06-14 Ismail Alexandre (President and CEO, TS) Option Ex 4,080 56.88 232,070
2011-06-14 Kramvis Andreas (President and CEO, SM) Option Ex 6,800 56.88 386,784
2011-05-05 Pardo Jaime Chico /fa (Director) Option Ex 2,000 36.70 73,400
2011-04-26 Mikkilineni Krishna (SVP, Engineering & Operations) Sale 14,100 61.00 860,100
2011-04-26 Mikkilineni Krishna (SVP, Engineering & Operations) Option Ex 20,000 36.27 725,400
2011-04-26 Ismail Alexandre (President & CEO, TS) Sale 4,605 61.37 282,608
2011-04-26 Ismail Alexandre (President & CEO, TS) Option Ex 7,500 36.27 272,025
2011-04-26 Bethune Gordon M (Director) Sale 1,490 61.06 90,979
2011-04-26 Bethune Gordon M (Director) Option Ex 2,000 36.70 73,400
2011-04-13 Deily Linnet F (Director) Sale 4 57.40 229
2011-04-08 Deily Linnet F (Director) Sale 4 58.25 233
2011-04-07 Deily Linnet F (Director) Sale 6 58.70 352
2011-03-14 Deily Linnet F (Director) Sale 4 55.51 222
2011-03-03 Adams Katherine L. (Sr. VP & General Counsel) Sale 505 57.08 28,825
2011-02-26 Mikkilineni Krishna (SrVp, Engineering & Operations) Option Ex 2,840 57.30 162,732
2011-02-26 Mahoney Timothy O. (President and CEO, Aerospace) Option Ex 11,574 57.30 663,190
2011-02-26 Winters Kathleen A (Vice President and Controller) Option Ex 1,310 57.30 75,063
2011-02-26 Ismail Alexandre (President and CEO, TS) Option Ex 3,058 57.30 175,223
2011-02-26 Adams Katherine L. (Sr. VP & General Counsel) Option Ex 3,495 57.30 200,263
2011-02-26 Kramvis Andreas (President and CEO, SM) Option Ex 3,058 57.30 175,223
2011-02-17 Deily Linnet F (Director) Sale 7 57.42 401
2011-02-01 Deily Linnet F (Director) Buy 4 56.35 225
2011-01-11 Cote David M (Chairman & CEO) Option Ex 261,782 .00 0
2010-12-30 Deily Linnet F (Director) Buy 21 52.99 1,112
2010-12-20 Kramvis Andreas (President & CEO, SM) Sale 24,962 52.94 1,321,488
2010-12-20 Kramvis Andreas (President & CEO, SM) Option Ex 30,000 36.27 1,088,100
2010-12-20 Fradin Roger (President & CEO, ACS) Sale 38,772 52.95 2,053,171
2010-11-22 Fradin Roger (President & CEO, ACS) Sale 57,519 49.46 2,845,004
2010-11-22 Fradin Roger (President & CEO, ACS) Option Ex 67,000 36.27 2,430,090
2010-11-22 Paz George (Director) Buy 1,000 49.58 49,576
2010-07-29 Mahoney Timothy O. (President and CEO, Aerospace) Sale 477 43.45 20,723
2010-07-29 James Mark R. (Sr. VP, HR & Communications) Sale 701 42.55 29,827
2010-07-29 Fradin Roger (President & CEO, ACS) Option Ex 16,500 42.93 708,345
2010-07-29 Davis D Scott (Director) Sale 1,000 43.00 43,000
2010-07-28 Adams Katherine L. (Sr. VP & General Counsel) Sale 918 43.33 39,772
2010-07-27 Winters Kathleen A (Vice President and Controller) Option Ex 2,310 43.83 101,247
2010-07-27 Fradin Roger (President & CEO, ACS) Option Ex 67,668 43.83 2,965,888
2010-07-17 Mikkilineni Krishna (SrVp, Engineering & Operations) Option Ex 5,100 40.55 206,805
2010-07-17 Mahoney Timothy O. (President and CEO, Aerospace) Option Ex 5,100 40.55 206,805
2010-07-17 Winters Kathleen A (Vice President and Controller) Option Ex 5,100 40.55 206,805
2010-07-17 Adams Katherine L. (Sr. VP & General Counsel) Option Ex 6,800 40.55 275,740
2010-07-17 James Mark R. (Sr. VP, HR & Communications) Option Ex 5,100 40.55 206,805
2010-04-28 Fradin Roger (President & CEO, ACS) Sale 4,294 47.11 202,286
2010-04-28 Fradin Roger (President & CEO, ACS) Option Ex 5,000 34.54 172,700
2010-03-03 Adams Katherine L. (Sr. VP & General Counsel) Sale 451 41.10 18,536
2010-03-03 James Mark R. (Sr. VP, HR & Communications) Sale 400 40.89 16,356
2010-03-02 Mahoney Timothy O. (President and CEO, Aerospace) Sale 397 40.59 16,114
2010-03-02 Kramvis Andreas (President and CEO, SM) Sale 318 40.61 12,913
2010-03-02 Fradin Roger (President & CEO, ACS) Sale 9,022 40.63 366,608
2010-03-02 Fradin Roger (President & CEO, ACS) Option Ex 10,000 34.54 345,400
2010-02-26 Mahoney Timothy O. (President and CEO, Aerospace) Option Ex 4,000 40.17 160,680
2010-02-26 Winters Kathleen A (Vice President and Controller) Option Ex 1,200 40.17 48,204
2010-02-26 Ismail Alexandre (President and CEO, TS) Option Ex 2,800 40.17 112,476
2010-02-26 Adams Katherine L. (Sr. VP & General Counsel) Option Ex 3,200 40.17 128,544
2010-02-26 Kramvis Andreas (President and CEO, SM) Option Ex 3,200 40.17 128,544
2010-02-26 James Mark R. (Sr. VP, HR & Communications) Option Ex 2,800 40.17 112,476
2010-02-09 Burke Kevin (Director) Buy 6,000 37.65 225,900
2009-09-24 Sheares Bradley T (Director) Sale 840 38.49 32,331
2009-08-10 Ismail Alexandre (President and CEO, TS) Sale 1,707 35.95 61,366
2009-08-04 Ismail Alexandre (President and CEO, TS) Option Ex 5,610 35.34 198,257
2009-07-28 Brown Adriane M (SVP, Energy Strategy) Option Ex 16,500 33.99 560,835
2009-07-27 Fradin Roger (President & CEO, ACS) Option Ex 67,666 30.77 2,082,082
2009-06-28 Adams Katherine L. (Sr. VP & General Counsel) Option Ex 5,610 31.97 179,351
2009-06-28 James Mark R. (Sr. VP, HR & Communications) Option Ex 5,610 31.97 179,351
2009-06-14 Ismail Alexandre (President and CEO, TS) Option Ex 3,960 34.86 138,045
2009-06-14 Kramvis Andreas (President and CEO, SM) Option Ex 6,600 34.86 230,076
2009-02-04 Stafford John R (Director) Sale 2,100 32.26 67,746
2009-01-20 Kittelberger Larry E (SVP Technology & Operations) Sale 62 32.17 1,994
2009-01-16 Brown Adriane M (President & CEO, TS) Option Ex 77 .00 0
2009-01-16 Kreindler Peter M (SVP, Gov. & Regulatory Affairs) Option Ex 574 .00 0
2009-01-16 Kittelberger Larry E (SVP Technology & Operations) Option Ex 62 .00 0
2008-08-20 Griep Talia M (Vice President and Controller) Option Ex 3,750 48.46 181,725
2008-07-29 Fradin Roger (President & CEO, ACS) Option Ex 16,500 50.80 838,200
2008-07-27 Fradin Roger (President & CEO, ACS) Option Ex 67,666 50.71 3,431,342
2008-07-24 Brown Adriane M (President & CEO, TS) Sale 70,948 52.37 3,715,617
2008-07-24 Brown Adriane M (President & CEO, TS) Option Ex 90,000 30.10 2,709,000
2008-07-17 James Mark R. (Sr. VP, HR & Communications) Option Ex 4,950 50.66 250,766
2008-07-17 Brown Adriane M (President &CEO, TS) Option Ex 6,600 50.66 334,356
2008-02-06 Kreindler Peter M (Sr. VP and General Counsel) Sale 25,000 59.40 1,485,000
2008-02-06 Kreindler Peter M (Sr. VP and General Counsel) Option Ex 25,000 23.93 598,250
2008-02-01 Stafford John R (Director) Option Ex 2,000 43.07 86,140
2008-01-31 Seidenberg Ivan G (Director) Option Ex 2,000 43.07 86,140
2008-01-20 Brown Adriane M (President & CEO, TS) Sale 77 32.17 2,477
2008-01-18 Brown Adriane M (President & CEO, TS) Option Ex 76 .00 0
2008-01-18 Kreindler Peter M (Senior VP and General Counsel) Sale 560 56.10 31,416
2008-01-18 Kreindler Peter M (Senior VP and General Counsel) Option Ex 560 .00 0
2008-01-18 Kittelberger Larry E (SVP Technology & Operations) Sale 60 56.10 3,366
2008-01-18 Kittelberger Larry E (SVP Technology & Operations) Option Ex 60 .00 0
2008-01-07 Gillette Robert J (President &CEO, Aerospace) Option Ex 16,500 57.85 954,525
2007-12-19 Kreindler Peter M (Sr. VP and General Counsel) Sale 25,000 61.09 1,527,150
2007-12-19 Kreindler Peter M (Sr. VP and General Counsel) Option Ex 25,000 23.93 598,250
2007-11-06 Kittelberger Larry E (SVP, Technology & Operations) Sale 43,625 60.55 2,641,493
2007-11-06 Kittelberger Larry E (SVP, Technology & Operations) Option Ex 370,580 23.74 8,797,569
2007-10-31 Kittelberger Larry E (SVP, Technology & Operations) Option Ex 29,420 23.55 692,841
2007-10-29 Weidenkopf Thomas W (Sr. VP, HR & Communications) Sale 16,500 59.74 985,776
2007-10-29 Kreindler Peter M (Sr. VP and General Counsel) Sale 50,000 59.68 2,984,000
2007-10-29 Kreindler Peter M (Sr. VP and General Counsel) Option Ex 50,000 47.85 2,392,500
2007-10-25 Gillette Robert J (President &CEO, Aerospace) Option Ex 16,500 58.64 967,560
2007-10-25 Weidenkopf Thomas W (Sr. VP, HR & Communications) Option Ex 16,500 58.64 967,560
2007-08-22 Gillette Robert J (President & CEO, Aerospace) Option Ex 541,200 36.08 19,526,496
2007-05-08 Fradin Roger (President & CEO, ACS) Sale 21,616 55.47 1,199,082
2007-05-08 Fradin Roger (President & CEO, ACS) Option Ex 23,750 47.85 1,136,437
2007-05-08 Kreindler Peter M (Sr. VP and General Counsel) Sale 38,700 55.30 2,140,148
2007-05-07 Kreindler Peter M (Sr. VP and General Counsel) Sale 11,300 56.02 633,082
2007-05-07 Kreindler Peter M (Sr. VP and General Counsel) Option Ex 50,000 36.27 1,813,500
2007-05-04 Weidenkopf Thomas W (Sr. VP, HR and Communications) Option Ex 156,000 32.71 5,103,228
2007-05-02 Kreindler Peter M (Sr. VP and General Counsel) Sale 50,000 55.78 2,789,000
2007-05-02 Kreindler Peter M (Sr. VP and General Counsel) Option Ex 50,000 36.27 1,813,500
2007-04-30 Kreindler Peter M (Sr. VP and General Counsel) Sale 100,000 54.44 5,444,000
2007-04-30 Kreindler Peter M (Sr. VP and General Counsel) Option Ex 100,000 36.27 3,627,000
2007-04-27 Gillette Robert J (President &CEO, Aerospace) Sale 8,712 54.74 476,938
2007-04-26 Kreindler Peter M (Sr. VP and General Counsel) Sale 100,000 53.78 5,377,700
2007-04-26 Kreindler Peter M (Sr. VP and General Counsel) Option Ex 100,000 41.41 4,140,999
2007-02-22 Pardo Jaime Chico /fa (Director) Buy 5,000 48.00 240,000
2007-02-21 Seidenberg Ivan G (Director) Option Ex 2,000 35.44 70,880
2007-02-21 Palmer Russell E (Director) Option Ex 2,000 35.44 70,880
2007-02-21 Stafford John R (Director) Option Ex 2,000 35.44 70,880
2007-01-18 Brown Adriane M (President & CEO, TS) Sale 74 45.16 3,341
2007-01-18 Brown Adriane M (President & CEO, TS) Option Ex 74 .00 0
2007-01-18 Kreindler Peter M (Senior VP and General Counsel) Sale 550 45.16 24,837
2007-01-18 Kreindler Peter M (Senior VP and General Counsel) Option Ex 550 .00 0
2007-01-18 Kittelberger Larry E (SVP Technology & Operations) Sale 59 45.16 2,664
2007-01-18 Kittelberger Larry E (SVP Technology & Operations) Option Ex 59 .00 0
2006-12-20 Kreindler Peter M (Senior VP and GC) Sale 30,382 44.67 1,357,194
2006-07-17 Brown Adriane M (President &CEO, TS) Option Ex 6,600 37.01 244,266
2006-03-01 Seidenberg Ivan G (Director) Option Ex 2,000 28.75 57,500
2006-03-01 Palmer Russell E (Director) Option Ex 2,000 28.75 57,500
2006-02-13 Stafford John R (Director) Option Ex 2,000 28.75 57,500
2006-02-06 Fradin Roger (President &CEO, ACS) Option Ex 3,215 39.07 125,610
2006-01-17 Brown Adriane M (President &CEO, TS) Option Ex 73 37.01 2,701
2006-01-12 Cote David M (Chairman & CEO) Option Ex 55,500 37.12 2,060,159
2005-10-27 Davis D Scott (Director) Buy 4,000 33.53 134,116
2005-10-25 Gillette Robert J (CEO, Aerospace) Sale 3,328 34.03 113,251
 1   2   3 

Insider trading activities including stock purchases, stock sales, and option exercises of HON listed in the above tables cannot be completely guaranteed as to their accuracy. For more insider trading information of Honeywell International Inc (symbol HON, CIK number 773840) see the Securities and Exchange Commission (SEC) website.